sensor_id;sensor_type;location;lat;lon;timestamp;P1;durP1;ratioP1;P2;durP2;ratioP2
15412;SDS011;7805;49.554;7.632;2022-08-01T00:01:43;1.85;;;1.40;;
15412;SDS011;7805;49.554;7.632;2022-08-01T00:04:09;1.33;;;1.10;;
15412;SDS011;7805;49.554;7.632;2022-08-01T00:06:34;1.10;;;1.10;;
15412;SDS011;7805;49.554;7.632;2022-08-01T00:09:00;1.60;;;1.27;;
15412;SDS011;7805;49.554;7.632;2022-08-01T00:11:25;1.10;;;1.10;;
15412;SDS011;7805;49.554;7.632;2022-08-01T00:13:51;1.20;;;1.10;;
15412;SDS011;7805;49.554;7.632;2022-08-01T00:16:17;1.23;;;1.13;;
15412;SDS011;7805;49.554;7.632;2022-08-01T00:18:43;1.15;;;1.02;;
15412;SDS011;7805;49.554;7.632;2022-08-01T00:21:09;1.55;;;1.00;;
15412;SDS011;7805;49.554;7.632;2022-08-01T00:23:34;1.65;;;1.30;;
15412;SDS011;7805;49.554;7.632;2022-08-01T00:26:00;1.30;;;1.20;;
15412;SDS011;7805;49.554;7.632;2022-08-01T00:28:25;1.15;;;1.15;;
15412;SDS011;7805;49.554;7.632;2022-08-01T00:30:52;1.45;;;0.95;;
15412;SDS011;7805;49.554;7.632;2022-08-01T00:33:17;1.10;;;1.10;;
15412;SDS011;7805;49.554;7.632;2022-08-01T00:35:43;1.35;;;1.25;;
15412;SDS011;7805;49.554;7.632;2022-08-01T00:38:09;1.27;;;1.17;;
15412;SDS011;7805;49.554;7.632;2022-08-01T00:40:35;0.93;;;0.93;;
15412;SDS011;7805;49.554;7.632;2022-08-01T00:43:01;1.10;;;1.00;;
15412;SDS011;7805;49.554;7.632;2022-08-01T00:45:27;1.73;;;1.30;;
15412;SDS011;7805;49.554;7.632;2022-08-01T00:47:53;2.30;;;1.20;;
15412;SDS011;7805;49.554;7.632;2022-08-01T00:50:18;2.45;;;1.20;;
15412;SDS011;7805;49.554;7.632;2022-08-01T00:52:44;1.13;;;1.10;;
15412;SDS011;7805;49.554;7.632;2022-08-01T00:55:10;1.35;;;1.10;;
15412;SDS011;7805;49.554;7.632;2022-08-01T00:57:37;1.60;;;1.30;;
15412;SDS011;7805;49.554;7.632;2022-08-01T01:00:04;1.10;;;1.10;;
15412;SDS011;7805;49.554;7.632;2022-08-01T01:02:31;0.90;;;0.90;;
15412;SDS011;7805;49.554;7.632;2022-08-01T01:04:57;2.05;;;1.38;;
15412;SDS011;7805;49.554;7.632;2022-08-01T01:10:31;3.60;;;1.25;;
15412;SDS011;7805;49.554;7.632;2022-08-01T01:13:06;1.55;;;1.10;;
15412;SDS011;7805;49.554;7.632;2022-08-01T01:15:45;1.30;;;1.20;;
15412;SDS011;7805;49.554;7.632;2022-08-01T01:18:24;1.00;;;1.00;;
15412;SDS011;7805;49.554;7.632;2022-08-01T01:26:48;1.23;;;1.15;;
15412;SDS011;7805;49.554;7.632;2022-08-01T01:29:28;1.30;;;1.20;;
15412;SDS011;7805;49.554;7.632;2022-08-01T01:32:05;1.77;;;1.48;;
15412;SDS011;7805;49.554;7.632;2022-08-01T01:34:35;1.20;;;1.10;;
15412;SDS011;7805;49.554;7.632;2022-08-01T01:37:04;1.40;;;1.30;;
15412;SDS011;7805;49.554;7.632;2022-08-01T01:39:34;2.13;;;1.27;;
15412;SDS011;7805;49.554;7.632;2022-08-01T01:42:02;1.42;;;1.33;;
15412;SDS011;7805;49.554;7.632;2022-08-01T01:44:30;1.33;;;1.23;;
15412;SDS011;7805;49.554;7.632;2022-08-01T01:46:56;1.42;;;1.30;;
15412;SDS011;7805;49.554;7.632;2022-08-01T01:49:25;3.40;;;1.52;;
15412;SDS011;7805;49.554;7.632;2022-08-01T01:51:53;1.38;;;1.27;;
15412;SDS011;7805;49.554;7.632;2022-08-01T01:54:22;1.30;;;1.20;;
15412;SDS011;7805;49.554;7.632;2022-08-01T01:56:49;1.42;;;1.25;;
15412;SDS011;7805;49.554;7.632;2022-08-01T01:59:19;1.70;;;1.20;;
15412;SDS011;7805;49.554;7.632;2022-08-01T02:01:49;1.63;;;1.30;;
15412;SDS011;7805;49.554;7.632;2022-08-01T02:04:17;1.20;;;1.20;;
15412;SDS011;7805;49.554;7.632;2022-08-01T02:06:45;1.95;;;1.35;;
15412;SDS011;7805;49.554;7.632;2022-08-01T02:09:14;1.45;;;1.35;;
15412;SDS011;7805;49.554;7.632;2022-08-01T02:11:42;1.20;;;1.20;;
15412;SDS011;7805;49.554;7.632;2022-08-01T02:14:09;1.45;;;1.30;;
15412;SDS011;7805;49.554;7.632;2022-08-01T02:16:36;1.65;;;1.50;;
15412;SDS011;7805;49.554;7.632;2022-08-01T02:19:04;1.00;;;1.00;;
15412;SDS011;7805;49.554;7.632;2022-08-01T02:21:32;3.50;;;1.45;;
15412;SDS011;7805;49.554;7.632;2022-08-01T02:24:07;2.13;;;1.17;;
15412;SDS011;7805;49.554;7.632;2022-08-01T02:26:39;1.50;;;1.40;;
15412;SDS011;7805;49.554;7.632;2022-08-01T02:29:09;1.37;;;1.37;;
15412;SDS011;7805;49.554;7.632;2022-08-01T02:31:38;1.37;;;1.30;;
15412;SDS011;7805;49.554;7.632;2022-08-01T02:34:06;1.33;;;1.23;;
15412;SDS011;7805;49.554;7.632;2022-08-01T02:36:35;2.10;;;1.27;;
15412;SDS011;7805;49.554;7.632;2022-08-01T02:39:03;2.10;;;1.40;;
15412;SDS011;7805;49.554;7.632;2022-08-01T02:41:36;1.97;;;1.20;;
15412;SDS011;7805;49.554;7.632;2022-08-01T02:44:07;2.60;;;1.30;;
15412;SDS011;7805;49.554;7.632;2022-08-01T02:46:58;2.50;;;1.33;;
15412;SDS011;7805;49.554;7.632;2022-08-01T02:49:22;1.10;;;0.90;;
15412;SDS011;7805;49.554;7.632;2022-08-01T02:51:51;1.10;;;1.00;;
15412;SDS011;7805;49.554;7.632;2022-08-01T02:54:19;3.47;;;1.00;;
15412;SDS011;7805;49.554;7.632;2022-08-01T02:56:47;1.17;;;1.10;;
15412;SDS011;7805;49.554;7.632;2022-08-01T02:59:16;0.97;;;0.97;;
15412;SDS011;7805;49.554;7.632;2022-08-01T03:01:44;1.53;;;0.93;;
15412;SDS011;7805;49.554;7.632;2022-08-01T03:04:11;2.33;;;0.90;;
15412;SDS011;7805;49.554;7.632;2022-08-01T03:06:37;1.17;;;1.17;;
15412;SDS011;7805;49.554;7.632;2022-08-01T03:09:03;1.20;;;1.10;;
15412;SDS011;7805;49.554;7.632;2022-08-01T03:11:31;3.33;;;2.10;;
15412;SDS011;7805;49.554;7.632;2022-08-01T03:14:01;2.03;;;1.83;;
15412;SDS011;7805;49.554;7.632;2022-08-01T03:16:30;1.60;;;1.50;;
15412;SDS011;7805;49.554;7.632;2022-08-01T03:18:57;1.63;;;1.53;;
15412;SDS011;7805;49.554;7.632;2022-08-01T03:21:26;1.37;;;1.27;;
15412;SDS011;7805;49.554;7.632;2022-08-01T03:23:54;1.63;;;1.37;;
15412;SDS011;7805;49.554;7.632;2022-08-01T03:26:28;2.23;;;1.40;;
15412;SDS011;7805;49.554;7.632;2022-08-01T03:28:57;1.67;;;1.43;;
15412;SDS011;7805;49.554;7.632;2022-08-01T03:31:26;1.73;;;1.47;;
15412;SDS011;7805;49.554;7.632;2022-08-01T03:33:53;1.30;;;1.20;;
15412;SDS011;7805;49.554;7.632;2022-08-01T03:36:21;1.33;;;1.13;;
15412;SDS011;7805;49.554;7.632;2022-08-01T03:38:50;2.07;;;1.50;;
15412;SDS011;7805;49.554;7.632;2022-08-01T03:41:19;1.30;;;1.20;;
15412;SDS011;7805;49.554;7.632;2022-08-01T03:43:48;1.53;;;1.00;;
15412;SDS011;7805;49.554;7.632;2022-08-01T03:46:29;1.60;;;1.20;;
15412;SDS011;7805;49.554;7.632;2022-08-01T03:49:00;1.70;;;1.60;;
15412;SDS011;7805;49.554;7.632;2022-08-01T03:51:30;2.33;;;1.50;;
15412;SDS011;7805;49.554;7.632;2022-08-01T03:53:57;1.80;;;1.37;;
15412;SDS011;7805;49.554;7.632;2022-08-01T03:56:25;1.50;;;1.40;;
15412;SDS011;7805;49.554;7.632;2022-08-01T03:58:52;1.63;;;1.27;;
15412;SDS011;7805;49.554;7.632;2022-08-01T04:01:19;1.67;;;1.47;;
15412;SDS011;7805;49.554;7.632;2022-08-01T04:03:45;1.27;;;1.17;;
15412;SDS011;7805;49.554;7.632;2022-08-01T04:06:11;1.77;;;1.27;;
15412;SDS011;7805;49.554;7.632;2022-08-01T04:08:39;1.47;;;1.30;;
15412;SDS011;7805;49.554;7.632;2022-08-01T04:11:07;1.40;;;1.20;;
15412;SDS011;7805;49.554;7.632;2022-08-01T04:13:34;1.73;;;1.20;;
15412;SDS011;7805;49.554;7.632;2022-08-01T04:16:00;1.50;;;1.40;;
15412;SDS011;7805;49.554;7.632;2022-08-01T04:18:26;1.60;;;1.30;;
15412;SDS011;7805;49.554;7.632;2022-08-01T04:20:51;1.47;;;1.37;;
15412;SDS011;7805;49.554;7.632;2022-08-01T04:23:18;1.63;;;1.23;;
15412;SDS011;7805;49.554;7.632;2022-08-01T04:25:47;1.27;;;1.20;;
15412;SDS011;7805;49.554;7.632;2022-08-01T04:28:15;1.30;;;1.20;;
15412;SDS011;7805;49.554;7.632;2022-08-01T04:30:42;1.90;;;1.20;;
15412;SDS011;7805;49.554;7.632;2022-08-01T04:33:11;2.40;;;1.50;;
15412;SDS011;7805;49.554;7.632;2022-08-01T04:35:41;2.13;;;1.57;;
15412;SDS011;7805;49.554;7.632;2022-08-01T04:38:10;2.30;;;1.53;;
15412;SDS011;7805;49.554;7.632;2022-08-01T04:40:39;1.30;;;1.30;;
15412;SDS011;7805;49.554;7.632;2022-08-01T04:43:06;1.80;;;1.30;;
15412;SDS011;7805;49.554;7.632;2022-08-01T04:45:32;3.50;;;1.40;;
15412;SDS011;7805;49.554;7.632;2022-08-01T04:47:59;1.50;;;1.37;;
15412;SDS011;7805;49.554;7.632;2022-08-01T04:50:25;4.20;;;1.40;;
15412;SDS011;7805;49.554;7.632;2022-08-01T04:52:51;2.07;;;1.50;;
15412;SDS011;7805;49.554;7.632;2022-08-01T04:55:17;2.37;;;1.40;;
15412;SDS011;7805;49.554;7.632;2022-08-01T04:57:43;1.97;;;1.30;;
15412;SDS011;7805;49.554;7.632;2022-08-01T05:00:10;2.77;;;1.53;;
15412;SDS011;7805;49.554;7.632;2022-08-01T05:02:36;2.47;;;1.60;;
15412;SDS011;7805;49.554;7.632;2022-08-01T05:05:02;1.40;;;1.40;;
15412;SDS011;7805;49.554;7.632;2022-08-01T05:07:30;1.10;;;1.10;;
15412;SDS011;7805;49.554;7.632;2022-08-01T05:09:56;1.43;;;1.33;;
15412;SDS011;7805;49.554;7.632;2022-08-01T05:12:22;2.47;;;1.13;;
15412;SDS011;7805;49.554;7.632;2022-08-01T05:14:48;3.83;;;1.70;;
15412;SDS011;7805;49.554;7.632;2022-08-01T05:17:13;1.93;;;1.63;;
15412;SDS011;7805;49.554;7.632;2022-08-01T05:19:39;3.57;;;1.17;;
15412;SDS011;7805;49.554;7.632;2022-08-01T05:22:06;1.70;;;1.50;;
15412;SDS011;7805;49.554;7.632;2022-08-01T05:24:33;3.67;;;1.73;;
15412;SDS011;7805;49.554;7.632;2022-08-01T05:27:00;3.43;;;1.40;;
15412;SDS011;7805;49.554;7.632;2022-08-01T05:29:27;3.07;;;1.43;;
15412;SDS011;7805;49.554;7.632;2022-08-01T05:31:53;1.47;;;1.40;;
15412;SDS011;7805;49.554;7.632;2022-08-01T05:34:19;1.10;;;1.00;;
15412;SDS011;7805;49.554;7.632;2022-08-01T05:36:45;2.87;;;1.00;;
15412;SDS011;7805;49.554;7.632;2022-08-01T05:39:11;1.20;;;1.20;;
15412;SDS011;7805;49.554;7.632;2022-08-01T05:41:37;1.10;;;1.00;;
15412;SDS011;7805;49.554;7.632;2022-08-01T05:44:04;1.57;;;1.47;;
15412;SDS011;7805;49.554;7.632;2022-08-01T05:46:30;1.40;;;1.30;;
15412;SDS011;7805;49.554;7.632;2022-08-01T05:48:56;2.17;;;1.50;;
15412;SDS011;7805;49.554;7.632;2022-08-01T05:51:26;1.30;;;1.20;;
15412;SDS011;7805;49.554;7.632;2022-08-01T05:53:52;2.65;;;1.13;;
15412;SDS011;7805;49.554;7.632;2022-08-01T05:56:18;2.55;;;1.55;;
15412;SDS011;7805;49.554;7.632;2022-08-01T05:58:45;1.10;;;1.00;;
15412;SDS011;7805;49.554;7.632;2022-08-01T06:01:11;1.50;;;1.15;;
15412;SDS011;7805;49.554;7.632;2022-08-01T06:03:36;2.25;;;1.27;;
15412;SDS011;7805;49.554;7.632;2022-08-01T06:06:02;1.85;;;1.40;;
15412;SDS011;7805;49.554;7.632;2022-08-01T06:08:28;1.08;;;1.08;;
15412;SDS011;7805;49.554;7.632;2022-08-01T06:10:54;1.20;;;1.10;;
15412;SDS011;7805;49.554;7.632;2022-08-01T06:13:20;2.92;;;1.20;;
15412;SDS011;7805;49.554;7.632;2022-08-01T06:15:46;1.13;;;0.85;;
15412;SDS011;7805;49.554;7.632;2022-08-01T06:18:12;1.25;;;1.00;;
15412;SDS011;7805;49.554;7.632;2022-08-01T06:20:37;0.90;;;0.90;;
15412;SDS011;7805;49.554;7.632;2022-08-01T06:23:03;2.60;;;0.70;;
15412;SDS011;7805;49.554;7.632;2022-08-01T06:25:29;0.90;;;0.68;;
15412;SDS011;7805;49.554;7.632;2022-08-01T06:27:55;1.33;;;0.80;;
15412;SDS011;7805;49.554;7.632;2022-08-01T06:30:21;1.02;;;0.93;;
15412;SDS011;7805;49.554;7.632;2022-08-01T06:32:46;0.73;;;0.70;;
15412;SDS011;7805;49.554;7.632;2022-08-01T06:35:12;0.50;;;0.50;;
15412;SDS011;7805;49.554;7.632;2022-08-01T06:37:38;2.17;;;0.68;;
15412;SDS011;7805;49.554;7.632;2022-08-01T06:40:05;0.70;;;0.70;;
15412;SDS011;7805;49.554;7.632;2022-08-01T06:42:33;1.10;;;1.00;;
15412;SDS011;7805;49.554;7.632;2022-08-01T06:45:11;0.90;;;0.77;;
15412;SDS011;7805;49.554;7.632;2022-08-01T06:47:38;0.80;;;0.80;;
15412;SDS011;7805;49.554;7.632;2022-08-01T06:50:05;1.20;;;0.90;;
15412;SDS011;7805;49.554;7.632;2022-08-01T06:52:32;0.93;;;0.80;;
15412;SDS011;7805;49.554;7.632;2022-08-01T06:54:57;2.30;;;0.90;;
15412;SDS011;7805;49.554;7.632;2022-08-01T06:57:24;1.23;;;0.70;;
15412;SDS011;7805;49.554;7.632;2022-08-01T06:59:50;1.20;;;0.80;;
15412;SDS011;7805;49.554;7.632;2022-08-01T07:02:15;0.50;;;0.50;;
15412;SDS011;7805;49.554;7.632;2022-08-01T07:04:41;0.60;;;0.60;;
15412;SDS011;7805;49.554;7.632;2022-08-01T07:07:07;0.73;;;0.70;;
15412;SDS011;7805;49.554;7.632;2022-08-01T07:09:32;0.60;;;0.60;;
15412;SDS011;7805;49.554;7.632;2022-08-01T07:11:58;0.80;;;0.80;;
15412;SDS011;7805;49.554;7.632;2022-08-01T07:14:24;0.63;;;0.63;;
15412;SDS011;7805;49.554;7.632;2022-08-01T07:16:49;0.73;;;0.55;;
15412;SDS011;7805;49.554;7.632;2022-08-01T07:19:15;0.63;;;0.63;;
15412;SDS011;7805;49.554;7.632;2022-08-01T07:21:41;1.00;;;0.80;;
15412;SDS011;7805;49.554;7.632;2022-08-01T07:24:08;0.98;;;0.60;;
15412;SDS011;7805;49.554;7.632;2022-08-01T07:26:35;0.80;;;0.80;;
15412;SDS011;7805;49.554;7.632;2022-08-01T07:29:00;0.73;;;0.73;;
15412;SDS011;7805;49.554;7.632;2022-08-01T07:31:27;0.80;;;0.80;;
15412;SDS011;7805;49.554;7.632;2022-08-01T07:33:53;1.02;;;1.02;;
15412;SDS011;7805;49.554;7.632;2022-08-01T07:36:19;1.60;;;0.73;;
15412;SDS011;7805;49.554;7.632;2022-08-01T07:38:45;1.10;;;0.90;;
15412;SDS011;7805;49.554;7.632;2022-08-01T07:41:11;0.80;;;0.80;;
15412;SDS011;7805;49.554;7.632;2022-08-01T07:43:37;1.02;;;0.77;;
15412;SDS011;7805;49.554;7.632;2022-08-01T07:46:03;0.90;;;0.90;;
15412;SDS011;7805;49.554;7.632;2022-08-01T07:48:29;0.93;;;0.80;;
15412;SDS011;7805;49.554;7.632;2022-08-01T07:50:55;1.45;;;0.80;;
15412;SDS011;7805;49.554;7.632;2022-08-01T07:53:21;1.33;;;0.80;;
15412;SDS011;7805;49.554;7.632;2022-08-01T07:55:47;0.98;;;0.70;;
15412;SDS011;7805;49.554;7.632;2022-08-01T07:58:13;1.50;;;0.90;;
15412;SDS011;7805;49.554;7.632;2022-08-01T08:00:38;0.75;;;0.75;;
15412;SDS011;7805;49.554;7.632;2022-08-01T08:03:04;0.90;;;0.90;;
15412;SDS011;7805;49.554;7.632;2022-08-01T08:05:30;1.25;;;0.85;;
15412;SDS011;7805;49.554;7.632;2022-08-01T08:07:59;1.08;;;0.82;;
15412;SDS011;7805;49.554;7.632;2022-08-01T08:10:35;1.00;;;0.90;;
15412;SDS011;7805;49.554;7.632;2022-08-01T08:13:01;0.77;;;0.77;;
15412;SDS011;7805;49.554;7.632;2022-08-01T08:15:27;0.95;;;0.90;;
15412;SDS011;7805;49.554;7.632;2022-08-01T08:17:53;0.63;;;0.63;;
15412;SDS011;7805;49.554;7.632;2022-08-01T08:20:19;1.58;;;1.10;;
15412;SDS011;7805;49.554;7.632;2022-08-01T08:22:49;1.33;;;0.88;;
15412;SDS011;7805;49.554;7.632;2022-08-01T08:25:15;1.30;;;0.90;;
15412;SDS011;7805;49.554;7.632;2022-08-01T08:27:41;1.98;;;0.68;;
15412;SDS011;7805;49.554;7.632;2022-08-01T08:30:07;0.77;;;0.77;;
15412;SDS011;7805;49.554;7.632;2022-08-01T08:32:33;0.93;;;0.90;;
15412;SDS011;7805;49.554;7.632;2022-08-01T08:34:59;0.60;;;0.60;;
15412;SDS011;7805;49.554;7.632;2022-08-01T08:37:25;1.95;;;0.80;;
15412;SDS011;7805;49.554;7.632;2022-08-01T08:39:51;0.90;;;0.90;;
15412;SDS011;7805;49.554;7.632;2022-08-01T08:42:17;0.77;;;0.75;;
15412;SDS011;7805;49.554;7.632;2022-08-01T08:44:43;0.65;;;0.65;;
15412;SDS011;7805;49.554;7.632;2022-08-01T08:47:10;0.70;;;0.70;;
15412;SDS011;7805;49.554;7.632;2022-08-01T08:49:37;1.15;;;0.73;;
15412;SDS011;7805;49.554;7.632;2022-08-01T08:52:03;0.60;;;0.60;;
15412;SDS011;7805;49.554;7.632;2022-08-01T08:54:30;0.80;;;0.80;;
15412;SDS011;7805;49.554;7.632;2022-08-01T08:56:58;0.57;;;0.57;;
15412;SDS011;7805;49.554;7.632;2022-08-01T08:59:24;1.30;;;0.80;;
15412;SDS011;7805;49.554;7.632;2022-08-01T09:01:51;1.50;;;0.98;;
15412;SDS011;7805;49.554;7.632;2022-08-01T09:04:17;1.15;;;0.60;;
15412;SDS011;7805;49.554;7.632;2022-08-01T09:06:43;0.68;;;0.68;;
15412;SDS011;7805;49.554;7.632;2022-08-01T09:09:09;0.93;;;0.93;;
15412;SDS011;7805;49.554;7.632;2022-08-01T09:11:35;1.80;;;0.90;;
15412;SDS011;7805;49.554;7.632;2022-08-01T09:16:32;1.75;;;0.65;;
15412;SDS011;7805;49.554;7.632;2022-08-01T09:19:18;1.02;;;0.80;;
15412;SDS011;7805;49.554;7.632;2022-08-01T09:21:57;0.95;;;0.88;;
15412;SDS011;7805;49.554;7.632;2022-08-01T09:24:25;0.80;;;0.70;;
15412;SDS011;7805;49.554;7.632;2022-08-01T09:26:51;2.50;;;0.50;;
15412;SDS011;7805;49.554;7.632;2022-08-01T09:29:29;0.93;;;0.70;;
15412;SDS011;7805;49.554;7.632;2022-08-01T09:31:56;0.70;;;0.70;;
15412;SDS011;7805;49.554;7.632;2022-08-01T09:34:30;3.50;;;0.90;;
15412;SDS011;7805;49.554;7.632;2022-08-01T09:36:58;1.48;;;0.82;;
15412;SDS011;7805;49.554;7.632;2022-08-01T09:39:32;1.70;;;0.95;;
15412;SDS011;7805;49.554;7.632;2022-08-01T09:44:50;1.23;;;0.80;;
15412;SDS011;7805;49.554;7.632;2022-08-01T09:47:16;0.90;;;0.65;;
15412;SDS011;7805;49.554;7.632;2022-08-01T09:49:45;0.60;;;0.60;;
15412;SDS011;7805;49.554;7.632;2022-08-01T09:52:20;1.20;;;0.70;;
15412;SDS011;7805;49.554;7.632;2022-08-01T09:54:54;2.17;;;0.88;;
15412;SDS011;7805;49.554;7.632;2022-08-01T09:57:21;3.05;;;0.73;;
15412;SDS011;7805;49.554;7.632;2022-08-01T09:59:48;2.58;;;0.80;;
15412;SDS011;7805;49.554;7.632;2022-08-01T10:02:26;0.60;;;0.60;;
15412;SDS011;7805;49.554;7.632;2022-08-01T10:05:01;0.57;;;0.50;;
15412;SDS011;7805;49.554;7.632;2022-08-01T10:07:31;0.70;;;0.70;;
15412;SDS011;7805;49.554;7.632;2022-08-01T10:10:08;0.57;;;0.52;;
15412;SDS011;7805;49.554;7.632;2022-08-01T10:12:38;2.47;;;0.50;;
15412;SDS011;7805;49.554;7.632;2022-08-01T10:15:05;1.38;;;0.60;;
15412;SDS011;7805;49.554;7.632;2022-08-01T10:17:32;0.60;;;0.60;;
15412;SDS011;7805;49.554;7.632;2022-08-01T10:19:59;1.70;;;0.60;;
15412;SDS011;7805;49.554;7.632;2022-08-01T10:22:27;1.25;;;0.80;;
15412;SDS011;7805;49.554;7.632;2022-08-01T10:24:56;0.60;;;0.60;;
15412;SDS011;7805;49.554;7.632;2022-08-01T10:27:26;1.00;;;0.57;;
15412;SDS011;7805;49.554;7.632;2022-08-01T10:30:02;1.48;;;0.50;;
15412;SDS011;7805;49.554;7.632;2022-08-01T10:32:30;2.58;;;0.80;;
15412;SDS011;7805;49.554;7.632;2022-08-01T10:34:56;1.52;;;0.80;;
15412;SDS011;7805;49.554;7.632;2022-08-01T10:37:23;0.88;;;0.60;;
15412;SDS011;7805;49.554;7.632;2022-08-01T10:39:50;2.55;;;0.60;;
15412;SDS011;7805;49.554;7.632;2022-08-01T10:42:17;0.90;;;0.73;;
15412;SDS011;7805;49.554;7.632;2022-08-01T10:44:43;0.88;;;0.60;;
15412;SDS011;7805;49.554;7.632;2022-08-01T10:47:13;0.68;;;0.68;;
15412;SDS011;7805;49.554;7.632;2022-08-01T10:49:45;2.08;;;0.75;;
15412;SDS011;7805;49.554;7.632;2022-08-01T10:52:29;0.60;;;0.60;;
15412;SDS011;7805;49.554;7.632;2022-08-01T10:55:05;0.45;;;0.40;;
15412;SDS011;7805;49.554;7.632;2022-08-01T10:57:55;0.60;;;0.60;;
15412;SDS011;7805;49.554;7.632;2022-08-01T11:00:20;1.30;;;0.40;;
15412;SDS011;7805;49.554;7.632;2022-08-01T11:02:57;0.73;;;0.40;;
15412;SDS011;7805;49.554;7.632;2022-08-01T11:05:25;0.60;;;0.60;;
15412;SDS011;7805;49.554;7.632;2022-08-01T11:07:53;0.80;;;0.47;;
15412;SDS011;7805;49.554;7.632;2022-08-01T11:10:22;1.48;;;0.63;;
15412;SDS011;7805;49.554;7.632;2022-08-01T11:12:49;0.75;;;0.75;;
15412;SDS011;7805;49.554;7.632;2022-08-01T11:15:16;0.60;;;0.60;;
15412;SDS011;7805;49.554;7.632;2022-08-01T11:17:49;1.38;;;0.55;;
15412;SDS011;7805;49.554;7.632;2022-08-01T11:30:41;0.47;;;0.47;;
15412;SDS011;7805;49.554;7.632;2022-08-01T11:33:11;0.57;;;0.40;;
15412;SDS011;7805;49.554;7.632;2022-08-01T11:35:38;0.40;;;0.40;;
15412;SDS011;7805;49.554;7.632;2022-08-01T11:51:52;0.40;;;0.40;;
15412;SDS011;7805;49.554;7.632;2022-08-01T11:54:38;0.77;;;0.40;;
15412;SDS011;7805;49.554;7.632;2022-08-01T11:57:09;0.75;;;0.40;;
15412;SDS011;7805;49.554;7.632;2022-08-01T11:59:47;1.05;;;0.50;;
15412;SDS011;7805;49.554;7.632;2022-08-01T12:02:20;0.40;;;0.40;;
15412;SDS011;7805;49.554;7.632;2022-08-01T12:04:58;0.40;;;0.40;;
15412;SDS011;7805;49.554;7.632;2022-08-01T12:07:33;0.45;;;0.45;;
15412;SDS011;7805;49.554;7.632;2022-08-01T12:10:07;3.00;;;0.50;;
15412;SDS011;7805;49.554;7.632;2022-08-01T12:12:47;0.50;;;0.50;;
15412;SDS011;7805;49.554;7.632;2022-08-01T12:15:22;0.47;;;0.47;;
15412;SDS011;7805;49.554;7.632;2022-08-01T12:17:50;1.15;;;0.65;;
15412;SDS011;7805;49.554;7.632;2022-08-01T12:20:21;0.50;;;0.40;;
15412;SDS011;7805;49.554;7.632;2022-08-01T12:22:52;2.15;;;0.40;;
15412;SDS011;7805;49.554;7.632;2022-08-01T12:25:19;0.40;;;0.40;;
15412;SDS011;7805;49.554;7.632;2022-08-01T12:27:45;1.02;;;0.50;;
15412;SDS011;7805;49.554;7.632;2022-08-01T12:30:13;0.40;;;0.40;;
15412;SDS011;7805;49.554;7.632;2022-08-01T12:32:44;0.68;;;0.50;;
15412;SDS011;7805;49.554;7.632;2022-08-01T12:40:18;0.32;;;0.32;;
15412;SDS011;7805;49.554;7.632;2022-08-01T12:42:51;1.50;;;0.55;;
15412;SDS011;7805;49.554;7.632;2022-08-01T12:45:19;0.40;;;0.40;;
15412;SDS011;7805;49.554;7.632;2022-08-01T12:47:48;1.65;;;0.52;;
15412;SDS011;7805;49.554;7.632;2022-08-01T12:50:16;0.80;;;0.40;;
15412;SDS011;7805;49.554;7.632;2022-08-01T12:52:45;1.58;;;0.70;;
15412;SDS011;7805;49.554;7.632;2022-08-01T12:55:12;1.27;;;0.40;;
15412;SDS011;7805;49.554;7.632;2022-08-01T12:57:39;0.40;;;0.40;;
15412;SDS011;7805;49.554;7.632;2022-08-01T13:02:41;1.05;;;0.50;;
15412;SDS011;7805;49.554;7.632;2022-08-01T13:05:07;0.90;;;0.50;;
15412;SDS011;7805;49.554;7.632;2022-08-01T13:07:41;0.47;;;0.47;;
15412;SDS011;7805;49.554;7.632;2022-08-01T13:10:15;0.40;;;0.40;;
15412;SDS011;7805;49.554;7.632;2022-08-01T13:13:01;0.85;;;0.40;;
15412;SDS011;7805;49.554;7.632;2022-08-01T13:15:29;1.13;;;0.77;;
15412;SDS011;7805;49.554;7.632;2022-08-01T13:18:00;0.50;;;0.50;;
15412;SDS011;7805;49.554;7.632;2022-08-01T13:20:45;0.98;;;0.50;;
15412;SDS011;7805;49.554;7.632;2022-08-01T13:23:12;0.38;;;0.38;;
15412;SDS011;7805;49.554;7.632;2022-08-01T13:25:54;0.98;;;0.40;;
15412;SDS011;7805;49.554;7.632;2022-08-01T13:28:24;0.80;;;0.40;;
15412;SDS011;7805;49.554;7.632;2022-08-01T13:30:52;0.45;;;0.45;;
15412;SDS011;7805;49.554;7.632;2022-08-01T13:33:19;0.45;;;0.45;;
15412;SDS011;7805;49.554;7.632;2022-08-01T13:35:44;0.98;;;0.40;;
15412;SDS011;7805;49.554;7.632;2022-08-01T13:38:12;0.68;;;0.38;;
15412;SDS011;7805;49.554;7.632;2022-08-01T13:40:38;0.40;;;0.40;;
15412;SDS011;7805;49.554;7.632;2022-08-01T13:43:03;1.48;;;0.45;;
15412;SDS011;7805;49.554;7.632;2022-08-01T13:45:29;0.30;;;0.30;;
15412;SDS011;7805;49.554;7.632;2022-08-01T13:47:54;0.65;;;0.40;;
15412;SDS011;7805;49.554;7.632;2022-08-01T13:50:20;0.38;;;0.30;;
15412;SDS011;7805;49.554;7.632;2022-08-01T13:52:46;1.70;;;0.40;;
15412;SDS011;7805;49.554;7.632;2022-08-01T13:55:11;0.88;;;0.40;;
15412;SDS011;7805;49.554;7.632;2022-08-01T13:57:37;0.63;;;0.30;;
15412;SDS011;7805;49.554;7.632;2022-08-01T14:00:03;1.02;;;0.47;;
15412;SDS011;7805;49.554;7.632;2022-08-01T14:02:31;1.60;;;0.52;;
15412;SDS011;7805;49.554;7.632;2022-08-01T14:04:56;1.33;;;0.57;;
15412;SDS011;7805;49.554;7.632;2022-08-01T14:07:23;0.50;;;0.50;;
15412;SDS011;7805;49.554;7.632;2022-08-01T14:09:49;0.55;;;0.55;;
15412;SDS011;7805;49.554;7.632;2022-08-01T14:12:15;1.90;;;0.50;;
15412;SDS011;7805;49.554;7.632;2022-08-01T14:14:40;1.27;;;0.50;;
15412;SDS011;7805;49.554;7.632;2022-08-01T14:17:06;0.57;;;0.40;;
15412;SDS011;7805;49.554;7.632;2022-08-01T14:19:32;1.42;;;0.32;;
15412;SDS011;7805;49.554;7.632;2022-08-01T14:21:57;0.50;;;0.50;;
15412;SDS011;7805;49.554;7.632;2022-08-01T14:24:23;0.57;;;0.55;;
15412;SDS011;7805;49.554;7.632;2022-08-01T14:26:51;1.38;;;0.52;;
15412;SDS011;7805;49.554;7.632;2022-08-01T14:29:16;0.30;;;0.30;;
15412;SDS011;7805;49.554;7.632;2022-08-01T14:31:42;0.82;;;0.52;;
15412;SDS011;7805;49.554;7.632;2022-08-01T14:34:07;0.68;;;0.68;;
15412;SDS011;7805;49.554;7.632;2022-08-01T14:36:33;2.05;;;0.77;;
15412;SDS011;7805;49.554;7.632;2022-08-01T14:38:59;0.93;;;0.40;;
15412;SDS011;7805;49.554;7.632;2022-08-01T14:41:24;0.50;;;0.50;;
15412;SDS011;7805;49.554;7.632;2022-08-01T14:43:50;0.82;;;0.63;;
15412;SDS011;7805;49.554;7.632;2022-08-01T14:46:16;1.65;;;0.63;;
15412;SDS011;7805;49.554;7.632;2022-08-01T14:48:41;0.40;;;0.40;;
15412;SDS011;7805;49.554;7.632;2022-08-01T14:51:07;1.50;;;0.32;;
15412;SDS011;7805;49.554;7.632;2022-08-01T14:53:33;0.57;;;0.40;;
15412;SDS011;7805;49.554;7.632;2022-08-01T14:56:00;0.50;;;0.50;;
15412;SDS011;7805;49.554;7.632;2022-08-01T14:58:26;0.40;;;0.40;;
15412;SDS011;7805;49.554;7.632;2022-08-01T15:00:52;0.40;;;0.40;;
15412;SDS011;7805;49.554;7.632;2022-08-01T15:03:19;0.70;;;0.50;;
15412;SDS011;7805;49.554;7.632;2022-08-01T15:05:46;0.88;;;0.43;;
15412;SDS011;7805;49.554;7.632;2022-08-01T15:08:11;1.30;;;0.50;;
15412;SDS011;7805;49.554;7.632;2022-08-01T15:10:37;0.30;;;0.30;;
15412;SDS011;7805;49.554;7.632;2022-08-01T15:13:02;0.43;;;0.43;;
15412;SDS011;7805;49.554;7.632;2022-08-01T15:15:28;0.77;;;0.60;;
15412;SDS011;7805;49.554;7.632;2022-08-01T15:17:54;0.55;;;0.55;;
15412;SDS011;7805;49.554;7.632;2022-08-01T15:20:21;0.43;;;0.43;;
15412;SDS011;7805;49.554;7.632;2022-08-01T15:22:47;1.85;;;0.60;;
15412;SDS011;7805;49.554;7.632;2022-08-01T15:25:13;2.03;;;0.30;;
15412;SDS011;7805;49.554;7.632;2022-08-01T15:27:39;0.70;;;0.50;;
15412;SDS011;7805;49.554;7.632;2022-08-01T15:30:04;2.40;;;0.60;;
15412;SDS011;7805;49.554;7.632;2022-08-01T15:32:30;2.20;;;0.40;;
15412;SDS011;7805;49.554;7.632;2022-08-01T15:34:56;0.52;;;0.50;;
15412;SDS011;7805;49.554;7.632;2022-08-01T15:37:21;0.77;;;0.77;;
15412;SDS011;7805;49.554;7.632;2022-08-01T15:39:47;1.20;;;0.60;;
15412;SDS011;7805;49.554;7.632;2022-08-01T15:42:15;0.50;;;0.50;;
15412;SDS011;7805;49.554;7.632;2022-08-01T15:44:42;2.03;;;0.95;;
15412;SDS011;7805;49.554;7.632;2022-08-01T15:47:08;1.38;;;0.65;;
15412;SDS011;7805;49.554;7.632;2022-08-01T15:49:35;0.82;;;0.60;;
15412;SDS011;7805;49.554;7.632;2022-08-01T15:52:08;1.45;;;0.50;;